Time;durP1;ratioP1;P1;durP2;ratioP2;P2;SDS_P1;SDS_P2;PMS_P1;PMS_P2;Temp;Humidity;BMP_temperature;BMP_pressure;BME280_temperature;BME280_humidity;BME280_pressure;Samples;Min_cycle;Max_cycle;Signal;HPM_P1;HPM_P2
2023/12/04 00:04:17;;;;;;;16.00;7.97;;;;;;;;;;10377320;28;20262;-75
2023/12/04 00:09:18;;;;;;;11.67;7.00;;;;;;;;;;10352089;28;20302;-76
2023/12/04 00:14:19;;;;;;;13.70;6.57;;;;;;;;;;10360693;28;20215;-78
2023/12/04 00:19:20;;;;;;;15.77;7.20;;;;;;;;;;10423096;28;20306;-76
2023/12/04 00:24:21;;;;;;;15.13;7.27;;;;;;;;;;10351986;28;20210;-76
2023/12/04 00:29:22;;;;;;;22.07;8.43;;;;;;;;;;10380505;28;20218;-76
2023/12/04 00:34:23;;;;;;;14.93;7.43;;;;;;;;;;10441419;28;20777;-78
2023/12/04 00:39:24;;;;;;;18.60;9.23;;;;;;;;;;10397956;28;20218;-75
2023/12/04 00:44:25;;;;;;;15.57;6.83;;;;;;;;;;10389487;28;20297;-74
2023/12/04 00:49:26;;;;;;;17.87;7.77;;;;;;;;;;10409423;28;20219;-75
2023/12/04 00:54:27;;;;;;;19.70;7.73;;;;;;;;;;10381952;28;20969;-76
2023/12/04 00:59:28;;;;;;;14.13;7.50;;;;;;;;;;10376080;28;21751;-75
2023/12/04 01:04:29;;;;;;;19.20;7.83;;;;;;;;;;10413071;28;20261;-74
2023/12/04 01:09:30;;;;;;;14.90;8.30;;;;;;;;;;10395666;28;20337;-76
2023/12/04 01:14:32;;;;;;;15.70;7.47;;;;;;;;;;10396208;28;21101;-76
2023/12/04 01:19:34;;;;;;;19.67;8.47;;;;;;;;;;10410862;28;20587;-76
2023/12/04 01:24:35;;;;;;;18.03;8.40;;;;;;;;;;10346143;28;20203;-74
2023/12/04 01:29:36;;;;;;;17.93;8.17;;;;;;;;;;10387750;28;20234;-77
2023/12/04 01:34:37;;;;;;;14.90;7.17;;;;;;;;;;10394989;28;20298;-75
2023/12/04 01:39:38;;;;;;;12.10;7.43;;;;;;;;;;10391310;28;20314;-76
2023/12/04 01:44:38;;;;;;;10.20;5.30;;;;;;;;;;10367256;28;20208;-77
2023/12/04 01:49:40;;;;;;;10.60;6.73;;;;;;;;;;10385967;28;20226;-77
2023/12/04 01:54:41;;;;;;;12.77;8.03;;;;;;;;;;10397980;28;20214;-77
2023/12/04 01:59:43;;;;;;;13.93;8.07;;;;;;;;;;10415376;28;20235;-77
2023/12/04 02:04:44;;;;;;;12.90;7.20;;;;;;;;;;10382076;28;20229;-76
2023/12/04 02:09:46;;;;;;;17.13;8.23;;;;;;;;;;10403440;28;20214;-78
2023/12/04 02:14:48;;;;;;;17.63;7.40;;;;;;;;;;10384426;28;20226;-75
2023/12/04 02:19:49;;;;;;;14.90;6.87;;;;;;;;;;10370374;28;20338;-74
2023/12/04 02:24:50;;;;;;;18.57;7.00;;;;;;;;;;10362163;28;20812;-74
2023/12/04 02:29:57;;;;;;;18.67;6.77;;;;;;;;;;10392694;28;20221;-76
2023/12/04 02:35:00;;;;;;;21.57;7.93;;;;;;;;;;10410412;28;20227;-76
2023/12/04 02:40:01;;;;;;;16.73;7.43;;;;;;;;;;10388397;28;20286;-76
2023/12/04 02:45:02;;;;;;;12.27;7.17;;;;;;;;;;10395557;28;20230;-77
2023/12/04 02:50:04;;;;;;;17.77;7.83;;;;;;;;;;10409002;28;20199;-74
2023/12/04 02:55:05;;;;;;;16.20;6.73;;;;;;;;;;10346823;28;20214;-74
2023/12/04 03:00:07;;;;;;;14.03;7.37;;;;;;;;;;10340682;28;20273;-76
2023/12/04 03:05:08;;;;;;;11.13;7.40;;;;;;;;;;10344062;28;20262;-75
2023/12/04 03:10:10;;;;;;;14.43;7.10;;;;;;;;;;10353426;28;20650;-75
2023/12/04 03:15:12;;;;;;;12.67;7.20;;;;;;;;;;10352338;28;20195;-74
2023/12/04 03:20:13;;;;;;;17.70;7.73;;;;;;;;;;10358456;28;20594;-74
2023/12/04 03:25:14;;;;;;;15.20;7.47;;;;;;;;;;10403466;28;20245;-74
2023/12/04 03:30:16;;;;;;;10.67;6.27;;;;;;;;;;10382813;28;20210;-75
2023/12/04 03:35:17;;;;;;;15.43;7.17;;;;;;;;;;10354282;28;20183;-73
2023/12/04 03:40:18;;;;;;;9.83;6.17;;;;;;;;;;10388228;28;20716;-75
2023/12/04 03:45:19;;;;;;;10.90;6.23;;;;;;;;;;10385495;28;20218;-73
2023/12/04 03:50:20;;;;;;;13.10;6.27;;;;;;;;;;10402870;28;20214;-74
2023/12/04 03:55:21;;;;;;;12.33;6.03;;;;;;;;;;10408225;28;20218;-75
2023/12/04 04:00:22;;;;;;;9.47;5.73;;;;;;;;;;10393827;28;20207;-75
2023/12/04 04:05:23;;;;;;;15.37;7.13;;;;;;;;;;10389150;28;20309;-78
2023/12/04 04:10:24;;;;;;;7.20;6.03;;;;;;;;;;10416346;28;20202;-74
2023/12/04 04:15:25;;;;;;;13.23;6.13;;;;;;;;;;10392694;28;20573;-76
2023/12/04 04:20:26;;;;;;;11.90;6.03;;;;;;;;;;10389855;28;20223;-77
2023/12/04 04:25:27;;;;;;;17.43;7.13;;;;;;;;;;10412020;28;20245;-75
2023/12/04 04:30:29;;;;;;;16.47;7.10;;;;;;;;;;10386679;28;20344;-76
2023/12/04 04:35:30;;;;;;;10.00;4.83;;;;;;;;;;10375139;28;20211;-75
2023/12/04 04:40:31;;;;;;;16.40;6.03;;;;;;;;;;10388589;28;20223;-76
2023/12/04 04:45:32;;;;;;;15.50;6.63;;;;;;;;;;10388654;28;20254;-76
2023/12/04 04:50:32;;;;;;;10.47;4.37;;;;;;;;;;10437598;28;20222;-77
2023/12/04 04:55:34;;;;;;;10.53;6.30;;;;;;;;;;10403787;28;20233;-74
2023/12/04 05:00:35;;;;;;;17.63;7.17;;;;;;;;;;10368617;28;20268;-75
2023/12/04 05:05:35;;;;;;;16.70;7.00;;;;;;;;;;10408278;28;22253;-75
2023/12/04 05:10:38;;;;;;;11.63;6.50;;;;;;;;;;10392507;28;20218;-75
2023/12/04 05:15:39;;;;;;;15.23;7.00;;;;;;;;;;10396564;28;20214;-75
2023/12/04 05:20:40;;;;;;;7.37;4.83;;;;;;;;;;10396713;28;20214;-76
2023/12/04 05:25:41;;;;;;;13.73;6.07;;;;;;;;;;10392365;28;20311;-75
2023/12/04 05:30:42;;;;;;;12.77;6.17;;;;;;;;;;10379618;28;20245;-75
2023/12/04 05:35:43;;;;;;;11.63;6.23;;;;;;;;;;10368929;28;20263;-75
2023/12/04 05:40:44;;;;;;;12.40;5.80;;;;;;;;;;10364206;28;20657;-74
2023/12/04 05:45:45;;;;;;;10.37;6.27;;;;;;;;;;10350149;28;20238;-75
2023/12/04 05:50:46;;;;;;;11.00;5.57;;;;;;;;;;10371663;28;20222;-77
2023/12/04 05:55:47;;;;;;;13.33;6.87;;;;;;;;;;10403058;28;20595;-76
2023/12/04 06:00:48;;;;;;;6.97;4.60;;;;;;;;;;10396495;28;21840;-75
2023/12/04 06:05:49;;;;;;;12.13;5.90;;;;;;;;;;10392742;28;20611;-75
2023/12/04 06:10:51;;;;;;;9.90;5.70;;;;;;;;;;10387362;28;20223;-77
2023/12/04 06:15:52;;;;;;;18.70;6.63;;;;;;;;;;10366315;28;20230;-75
2023/12/04 06:20:53;;;;;;;16.73;7.67;;;;;;;;;;10377653;28;20276;-74
2023/12/04 06:25:54;;;;;;;15.30;7.20;;;;;;;;;;10427622;28;20819;-76
2023/12/04 06:30:55;;;;;;;13.97;6.33;;;;;;;;;;10435109;28;20218;-74
2023/12/04 06:35:56;;;;;;;16.60;7.03;;;;;;;;;;10437340;28;20219;-75
2023/12/04 06:40:57;;;;;;;11.57;6.27;;;;;;;;;;10412862;28;20230;-75
2023/12/04 06:45:59;;;;;;;12.53;4.63;;;;;;;;;;10446907;28;20270;-75
2023/12/04 06:51:00;;;;;;;11.93;5.33;;;;;;;;;;10404167;28;20241;-75
2023/12/04 06:56:01;;;;;;;13.47;6.83;;;;;;;;;;10423389;28;20222;-75
2023/12/04 07:01:03;;;;;;;10.40;5.80;;;;;;;;;;10437372;28;20233;-76
2023/12/04 07:06:04;;;;;;;8.20;4.50;;;;;;;;;;10436939;28;20748;-76
2023/12/04 07:11:07;;;;;;;11.00;5.97;;;;;;;;;;10434676;28;20219;-76
2023/12/04 07:16:08;;;;;;;12.83;6.97;;;;;;;;;;10443645;28;20218;-77
2023/12/04 07:21:09;;;;;;;12.20;5.77;;;;;;;;;;10440764;28;20684;-76
2023/12/04 07:26:10;;;;;;;7.40;4.53;;;;;;;;;;10421772;28;20318;-77
2023/12/04 07:31:11;;;;;;;11.43;5.30;;;;;;;;;;10446530;28;20248;-75
2023/12/04 07:36:12;;;;;;;10.80;5.00;;;;;;;;;;10447333;28;20210;-76
2023/12/04 07:41:13;;;;;;;11.13;5.90;;;;;;;;;;10442172;28;20301;-76
2023/12/04 07:46:14;;;;;;;6.70;4.15;;;;;;;;;;10436433;28;20215;-75
2023/12/04 07:51:16;;;;;;;13.97;5.90;;;;;;;;;;10427706;28;20219;-76
2023/12/04 07:56:17;;;;;;;10.20;5.17;;;;;;;;;;10438978;28;20219;-75
2023/12/04 08:01:21;;;;;;;11.00;5.82;;;;;;;;;;10445118;28;20214;-75
2023/12/04 08:06:22;;;;;;;7.90;3.47;;;;;;;;;;10443837;28;21205;-76
2023/12/04 08:11:24;;;;;;;9.80;5.50;;;;;;;;;;10444388;28;20305;-77
2023/12/04 08:16:26;;;;;;;6.47;4.63;;;;;;;;;;10421629;28;20234;-76
2023/12/04 08:21:27;;;;;;;5.60;3.40;;;;;;;;;;10430425;28;20705;-76
2023/12/04 08:26:28;;;;;;;12.53;4.87;;;;;;;;;;10405671;28;20357;-76
2023/12/04 08:31:30;;;;;;;7.78;4.80;;;;;;;;;;10421797;28;20207;-76
2023/12/04 08:36:31;;;;;;;4.00;3.67;;;;;;;;;;10433469;28;20246;-76
2023/12/04 08:41:32;;;;;;;5.82;4.07;;;;;;;;;;10447718;28;20242;-77
2023/12/04 08:46:33;;;;;;;5.90;4.27;;;;;;;;;;10441558;28;20215;-76
2023/12/04 08:51:34;;;;;;;6.07;4.40;;;;;;;;;;10442497;28;20577;-76
2023/12/04 08:56:35;;;;;;;6.25;4.57;;;;;;;;;;10438668;28;20210;-76
2023/12/04 09:01:36;;;;;;;5.38;4.30;;;;;;;;;;10436959;28;20222;-77
2023/12/04 09:06:38;;;;;;;9.02;3.97;;;;;;;;;;10438319;28;20230;-76
2023/12/04 09:11:42;;;;;;;5.25;3.42;;;;;;;;;;10442146;28;20213;-76
2023/12/04 09:16:43;;;;;;;4.32;3.90;;;;;;;;;;10436150;28;20275;-76
2023/12/04 09:21:44;;;;;;;4.50;3.03;;;;;;;;;;10428033;28;20308;-76
2023/12/04 09:26:45;;;;;;;6.13;4.53;;;;;;;;;;10398841;28;20313;-76
2023/12/04 09:31:46;;;;;;;4.67;3.20;;;;;;;;;;10391990;28;20295;-77
2023/12/04 09:36:48;;;;;;;6.60;3.95;;;;;;;;;;10399060;28;20206;-75
2023/12/04 09:41:49;;;;;;;5.07;3.33;;;;;;;;;;10426330;28;20206;-76
2023/12/04 09:46:52;;;;;;;9.40;3.95;;;;;;;;;;10435677;28;20247;-75
2023/12/04 09:51:53;;;;;;;5.97;3.80;;;;;;;;;;10421271;28;20477;-78
2023/12/04 09:56:54;;;;;;;6.05;3.50;;;;;;;;;;10418743;28;20238;-76
2023/12/04 10:01:55;;;;;;;6.60;3.63;;;;;;;;;;10432237;28;20219;-75
2023/12/04 10:06:56;;;;;;;6.10;3.90;;;;;;;;;;10431493;28;20649;-76
2023/12/04 10:11:57;;;;;;;3.63;3.30;;;;;;;;;;10436268;28;20243;-75
2023/12/04 10:16:59;;;;;;;7.00;4.20;;;;;;;;;;10436779;28;20219;-75
2023/12/04 10:22:00;;;;;;;4.05;2.88;;;;;;;;;;10439812;28;20708;-74
2023/12/04 10:27:10;;;;;;;5.97;3.55;;;;;;;;;;10436336;28;20248;-76
2023/12/04 10:32:10;;;;;;;4.18;3.45;;;;;;;;;;10440027;28;20854;-75
2023/12/04 10:37:11;;;;;;;5.18;3.90;;;;;;;;;;10451295;28;20240;-77
2023/12/04 10:42:12;;;;;;;6.15;3.20;;;;;;;;;;10439737;28;20226;-76
2023/12/04 10:47:15;;;;;;;5.32;3.28;;;;;;;;;;10430549;28;20269;-76
2023/12/04 10:52:19;;;;;;;4.43;3.35;;;;;;;;;;10425810;28;20244;-76
2023/12/04 10:57:27;;;;;;;5.40;3.05;;;;;;;;;;10445584;28;20222;-77
2023/12/04 11:02:29;;;;;;;4.05;3.13;;;;;;;;;;10423733;28;20219;-75
2023/12/04 11:07:31;;;;;;;3.80;3.25;;;;;;;;;;10428051;28;20223;-76
2023/12/04 11:12:32;;;;;;;4.57;2.47;;;;;;;;;;10442303;28;20216;-75
2023/12/04 11:17:35;;;;;;;3.25;2.85;;;;;;;;;;10446582;28;20257;-75
2023/12/04 11:22:38;;;;;;;4.25;2.58;;;;;;;;;;10424373;28;20227;-77
2023/12/04 11:27:40;;;;;;;3.38;2.78;;;;;;;;;;10437367;28;20211;-76
2023/12/04 11:32:48;;;;;;;3.85;2.88;;;;;;;;;;10444458;28;20231;-78
2023/12/04 11:37:50;;;;;;;3.92;3.42;;;;;;;;;;10444037;28;20599;-75
2023/12/04 11:42:53;;;;;;;4.78;3.17;;;;;;;;;;10444116;28;20215;-76
2023/12/04 11:47:57;;;;;;;3.03;2.67;;;;;;;;;;10446286;28;20219;-75
2023/12/04 11:52:58;;;;;;;3.20;2.83;;;;;;;;;;10418262;28;20221;-76
2023/12/04 11:57:59;;;;;;;4.35;3.17;;;;;;;;;;10438191;28;20229;-76
2023/12/04 12:03:01;;;;;;;3.78;3.30;;;;;;;;;;10443703;28;20233;-75
2023/12/04 12:08:06;;;;;;;3.42;2.60;;;;;;;;;;10442727;28;20211;-76
2023/12/04 12:13:07;;;;;;;6.07;3.00;;;;;;;;;;10444484;28;20730;-75
2023/12/04 12:18:09;;;;;;;7.53;3.05;;;;;;;;;;10447629;28;20233;-76
2023/12/04 12:23:11;;;;;;;3.15;2.85;;;;;;;;;;10480667;28;20241;-76
2023/12/04 12:28:12;;;;;;;3.53;2.88;;;;;;;;;;10402868;28;20215;-75
2023/12/04 12:33:14;;;;;;;6.63;2.65;;;;;;;;;;10431992;28;20707;-76
2023/12/04 12:43:42;;;;;;;3.45;3.28;;;;;;;;;;10434898;28;20572;-76
2023/12/04 12:48:44;;;;;;;2.53;2.28;;;;;;;;;;10412552;28;20362;-76
2023/12/04 12:53:45;;;;;;;4.15;2.42;;;;;;;;;;10398200;28;20212;-76
2023/12/04 12:58:46;;;;;;;2.65;1.75;;;;;;;;;;10408180;28;20270;-76
2023/12/04 13:03:47;;;;;;;2.40;2.25;;;;;;;;;;10443336;28;20273;-76
2023/12/04 13:08:48;;;;;;;3.25;2.20;;;;;;;;;;10428691;28;20214;-75
2023/12/04 13:13:49;;;;;;;2.17;1.98;;;;;;;;;;10438448;28;21854;-75
2023/12/04 13:18:52;;;;;;;2.63;2.42;;;;;;;;;;10421891;28;20218;-75
2023/12/04 13:23:53;;;;;;;2.80;2.55;;;;;;;;;;10412179;28;20211;-77
2023/12/04 13:28:54;;;;;;;4.72;2.63;;;;;;;;;;10407873;28;21168;-76
2023/12/04 13:33:55;;;;;;;2.20;2.00;;;;;;;;;;10433395;28;20219;-75
2023/12/04 13:38:56;;;;;;;2.60;1.88;;;;;;;;;;10442397;28;20245;-77
2023/12/04 13:43:59;;;;;;;2.00;1.83;;;;;;;;;;10435839;28;20218;-76
2023/12/04 13:49:00;;;;;;;3.03;1.88;;;;;;;;;;10437502;28;20264;-76
2023/12/04 13:54:09;;;;;;;3.63;2.33;;;;;;;;;;10441499;28;20210;-75
2023/12/04 13:59:19;;;;;;;1.83;1.70;;;;;;;;;;10437465;28;20206;-75
2023/12/04 14:04:23;;;;;;;2.22;1.95;;;;;;;;;;10443765;28;21040;-76
2023/12/04 14:09:24;;;;;;;1.83;1.73;;;;;;;;;;10437861;28;20226;-76
2023/12/04 14:14:25;;;;;;;1.67;1.42;;;;;;;;;;10428477;28;20238;-75
2023/12/04 14:19:27;;;;;;;2.38;1.88;;;;;;;;;;10443751;28;20245;-77
2023/12/04 14:24:29;;;;;;;2.00;1.90;;;;;;;;;;10442144;28;20926;-75
2023/12/04 14:29:30;;;;;;;2.38;1.70;;;;;;;;;;10441209;28;20215;-77
2023/12/04 14:34:32;;;;;;;1.70;1.60;;;;;;;;;;10405956;28;20204;-75
2023/12/04 14:39:33;;;;;;;2.53;1.70;;;;;;;;;;10438992;28;20844;-76
2023/12/04 14:44:34;;;;;;;1.58;1.48;;;;;;;;;;10426737;28;20207;-76
2023/12/04 14:49:35;;;;;;;3.05;2.42;;;;;;;;;;10448932;28;20211;-76
2023/12/04 14:54:51;;;;;;;2.30;2.20;;;;;;;;;;10447727;28;20701;-76
2023/12/04 15:11:11;;;;;;;3.78;2.42;;;;;;;;;;10440383;28;20218;-76
2023/12/04 15:21:14;;;;;;;4.45;3.58;;;;;;;;;;10400068;28;20273;-76
2023/12/04 15:26:16;;;;;;;6.35;3.45;;;;;;;;;;10382733;28;20301;-75
2023/12/04 15:31:18;;;;;;;5.13;2.53;;;;;;;;;;10390721;28;20212;-75
2023/12/04 15:36:22;;;;;;;3.90;3.35;;;;;;;;;;10409347;28;20685;-76
2023/12/04 15:41:23;;;;;;;5.13;3.53;;;;;;;;;;10438625;28;20440;-74
2023/12/04 15:46:26;;;;;;;3.85;3.55;;;;;;;;;;10439874;28;20268;-76
2023/12/04 15:51:28;;;;;;;5.22;3.08;;;;;;;;;;10421083;28;20784;-76
2023/12/04 15:56:29;;;;;;;7.20;3.42;;;;;;;;;;10442489;28;20680;-75
2023/12/04 16:01:30;;;;;;;5.43;3.83;;;;;;;;;;10437309;28;20219;-78
2023/12/04 16:06:31;;;;;;;5.78;2.63;;;;;;;;;;10445334;28;20226;-76
2023/12/04 16:11:32;;;;;;;3.03;2.70;;;;;;;;;;10429966;28;20967;-75
2023/12/04 16:16:33;;;;;;;4.30;3.80;;;;;;;;;;10421186;28;20260;-76
2023/12/04 16:21:34;;;;;;;4.88;3.72;;;;;;;;;;10433420;28;20223;-76
2023/12/04 16:26:37;;;;;;;3.33;3.05;;;;;;;;;;10422505;28;20220;-77
2023/12/04 16:31:40;;;;;;;6.55;3.85;;;;;;;;;;10385515;28;20237;-76
2023/12/04 16:36:41;;;;;;;4.45;2.90;;;;;;;;;;10431156;28;20228;-75
2023/12/04 16:41:42;;;;;;;6.15;3.53;;;;;;;;;;10426625;28;20219;-76
2023/12/04 16:46:43;;;;;;;6.40;3.58;;;;;;;;;;10421712;28;20704;-76
2023/12/04 16:51:44;;;;;;;4.90;3.90;;;;;;;;;;10426402;28;20219;-72
2023/12/04 16:56:48;;;;;;;4.80;3.60;;;;;;;;;;10426438;28;20305;-74
2023/12/04 17:01:49;;;;;;;6.25;3.70;;;;;;;;;;10405705;28;20269;-72
2023/12/04 17:06:50;;;;;;;3.80;3.40;;;;;;;;;;10428047;28;20276;-75
2023/12/04 17:11:51;;;;;;;9.32;3.78;;;;;;;;;;10429798;28;20260;-71
2023/12/04 17:16:54;;;;;;;6.88;4.00;;;;;;;;;;10428465;28;20264;-73
2023/12/04 17:21:55;;;;;;;4.60;3.65;;;;;;;;;;10427703;28;20217;-72
2023/12/04 17:26:56;;;;;;;6.03;3.83;;;;;;;;;;10424463;28;20302;-72
2023/12/04 17:31:57;;;;;;;5.90;3.90;;;;;;;;;;10428960;28;20305;-76
2023/12/04 17:36:58;;;;;;;7.07;4.25;;;;;;;;;;10428459;28;20765;-74
2023/12/04 17:41:59;;;;;;;6.70;4.13;;;;;;;;;;10430163;28;20245;-76
2023/12/04 17:47:00;;;;;;;6.40;4.07;;;;;;;;;;10405304;28;20229;-74
2023/12/04 17:52:01;;;;;;;5.50;4.63;;;;;;;;;;10431467;28;20210;-73
2023/12/04 17:57:02;;;;;;;7.43;4.28;;;;;;;;;;10428740;28;20306;-78
2023/12/04 18:02:03;;;;;;;8.60;4.00;;;;;;;;;;10428232;28;20317;-76
2023/12/04 18:07:04;;;;;;;7.43;5.00;;;;;;;;;;10429399;28;20225;-75
2023/12/04 18:12:07;;;;;;;4.93;3.95;;;;;;;;;;10436005;28;20206;-73
2023/12/04 18:17:08;;;;;;;6.38;4.03;;;;;;;;;;10419292;28;20207;-76
2023/12/04 18:22:10;;;;;;;6.95;4.35;;;;;;;;;;10433798;28;20388;-75
2023/12/04 18:27:11;;;;;;;5.97;4.03;;;;;;;;;;10426350;28;20310;-73
2023/12/04 18:32:12;;;;;;;10.53;4.10;;;;;;;;;;10420805;28;20220;-75
2023/12/04 18:37:22;;;;;;;4.88;3.78;;;;;;;;;;10408081;28;20776;-77
2023/12/04 18:42:23;;;;;;;7.00;2.72;;;;;;;;;;10437254;28;20221;-76
2023/12/04 18:47:26;;;;;;;6.85;3.35;;;;;;;;;;10410340;28;20226;-78
2023/12/04 18:52:27;;;;;;;4.32;3.13;;;;;;;;;;10443159;28;20214;-79
2023/12/04 18:57:28;;;;;;;4.47;3.78;;;;;;;;;;10417409;28;20212;-78
2023/12/04 19:02:29;;;;;;;5.65;4.00;;;;;;;;;;10406440;28;20235;-76
2023/12/04 19:07:30;;;;;;;8.45;3.90;;;;;;;;;;10419251;28;20210;-76
2023/12/04 19:12:31;;;;;;;4.15;3.55;;;;;;;;;;10416874;28;20279;-78
2023/12/04 19:17:32;;;;;;;4.35;3.67;;;;;;;;;;10416290;28;20354;-77
2023/12/04 19:22:33;;;;;;;4.75;3.60;;;;;;;;;;10395880;28;20342;-76
2023/12/04 19:27:34;;;;;;;5.72;4.00;;;;;;;;;;10381060;28;20215;-75
2023/12/04 19:32:35;;;;;;;7.72;3.85;;;;;;;;;;10389537;28;20750;-75
2023/12/04 19:37:36;;;;;;;4.90;3.60;;;;;;;;;;10397904;28;20215;-77
2023/12/04 19:42:37;;;;;;;5.45;3.30;;;;;;;;;;10397815;28;20233;-77
2023/12/04 19:47:38;;;;;;;6.80;4.30;;;;;;;;;;10386972;28;20742;-75
2023/12/04 19:52:39;;;;;;;7.45;4.10;;;;;;;;;;10388900;28;20218;-76
2023/12/04 19:57:40;;;;;;;8.57;4.30;;;;;;;;;;10397995;28;20239;-76
2023/12/04 20:02:41;;;;;;;4.97;4.13;;;;;;;;;;10387433;28;20775;-77
2023/12/04 20:07:42;;;;;;;7.57;5.00;;;;;;;;;;10386554;28;20238;-75
2023/12/04 20:12:43;;;;;;;5.00;4.03;;;;;;;;;;10387674;28;20297;-78
2023/12/04 20:17:44;;;;;;;8.70;4.72;;;;;;;;;;10390814;28;20304;-76
2023/12/04 20:22:46;;;;;;;7.60;4.68;;;;;;;;;;10380017;28;20947;-78
2023/12/04 20:27:47;;;;;;;4.50;3.42;;;;;;;;;;10383084;28;20736;-76
2023/12/04 20:32:48;;;;;;;7.88;4.38;;;;;;;;;;10386746;28;20226;-77
2023/12/04 20:37:49;;;;;;;6.55;4.65;;;;;;;;;;10391839;28;20231;-75
2023/12/04 20:42:50;;;;;;;9.32;4.68;;;;;;;;;;10373887;28;20207;-76
2023/12/04 20:47:51;;;;;;;6.20;4.45;;;;;;;;;;10392395;28;20220;-77
2023/12/04 20:52:52;;;;;;;10.30;5.70;;;;;;;;;;10391358;28;20294;-76
2023/12/04 20:57:54;;;;;;;7.57;4.97;;;;;;;;;;10393226;28;20219;-75
2023/12/04 21:02:55;;;;;;;6.10;4.78;;;;;;;;;;10374381;28;20313;-76
2023/12/04 21:07:56;;;;;;;15.15;5.28;;;;;;;;;;10396762;28;20778;-76
2023/12/04 21:12:57;;;;;;;6.80;4.75;;;;;;;;;;10398580;28;20306;-76
2023/12/04 21:17:58;;;;;;;5.90;4.57;;;;;;;;;;10388158;28;20264;-77
2023/12/04 21:22:59;;;;;;;7.80;4.40;;;;;;;;;;10401525;28;20218;-74
2023/12/04 21:28:00;;;;;;;7.07;4.95;;;;;;;;;;10378731;28;20223;-76
2023/12/04 21:33:02;;;;;;;7.47;5.47;;;;;;;;;;10417235;28;20863;-75
2023/12/04 21:38:03;;;;;;;8.95;4.68;;;;;;;;;;10434719;28;20862;-75
2023/12/04 21:43:04;;;;;;;5.82;4.32;;;;;;;;;;10434659;28;20210;-75
2023/12/04 21:48:05;;;;;;;5.38;4.30;;;;;;;;;;10438934;28;20211;-77
2023/12/04 21:53:06;;;;;;;6.03;4.30;;;;;;;;;;10437693;28;20846;-76
2023/12/04 21:58:07;;;;;;;7.72;5.15;;;;;;;;;;10424890;28;20205;-75
2023/12/04 22:03:08;;;;;;;5.47;3.93;;;;;;;;;;10436468;28;20217;-77
2023/12/04 22:08:09;;;;;;;9.90;4.88;;;;;;;;;;10443489;28;20302;-76
2023/12/04 22:13:10;;;;;;;6.93;4.82;;;;;;;;;;10413022;28;20266;-76
2023/12/04 22:18:11;;;;;;;6.18;3.55;;;;;;;;;;10390637;28;20265;-77
2023/12/04 22:23:12;;;;;;;8.05;4.75;;;;;;;;;;10400714;28;20207;-76
2023/12/04 22:28:14;;;;;;;7.43;5.07;;;;;;;;;;10397688;28;20223;-76
2023/12/04 22:33:15;;;;;;;7.68;5.93;;;;;;;;;;10387327;28;20214;-76
2023/12/04 22:38:16;;;;;;;8.07;4.23;;;;;;;;;;10395035;28;20262;-76
2023/12/04 22:43:19;;;;;;;6.80;4.82;;;;;;;;;;10406130;28;20223;-76
2023/12/04 22:48:20;;;;;;;8.77;5.13;;;;;;;;;;10405029;28;20230;-76
2023/12/04 22:53:21;;;;;;;10.43;5.70;;;;;;;;;;10405660;28;20689;-76
2023/12/04 22:58:22;;;;;;;8.75;5.80;;;;;;;;;;10398580;28;20208;-75
2023/12/04 23:03:23;;;;;;;9.40;6.13;;;;;;;;;;10394467;28;21135;-77
2023/12/04 23:08:24;;;;;;;10.13;5.33;;;;;;;;;;10434443;28;20210;-77
2023/12/04 23:13:25;;;;;;;5.38;4.45;;;;;;;;;;10446052;28;20214;-75
2023/12/04 23:18:26;;;;;;;7.97;4.03;;;;;;;;;;10441657;28;20230;-75
2023/12/04 23:23:27;;;;;;;9.98;5.72;;;;;;;;;;10449673;28;20218;-76
2023/12/04 23:28:28;;;;;;;8.45;4.80;;;;;;;;;;10442414;28;20850;-77
2023/12/04 23:33:29;;;;;;;14.52;6.53;;;;;;;;;;10440430;28;20213;-76
2023/12/04 23:38:30;;;;;;;11.30;6.90;;;;;;;;;;10426850;28;20214;-78
2023/12/04 23:43:31;;;;;;;14.77;7.32;;;;;;;;;;10403517;28;20704;-75
2023/12/04 23:48:32;;;;;;;7.55;5.97;;;;;;;;;;10437713;28;20218;-76
2023/12/04 23:53:33;;;;;;;11.25;5.85;;;;;;;;;;10440521;28;20214;-76
2023/12/04 23:58:34;;;;;;;14.73;6.70;;;;;;;;;;10399425;28;20227;-77
